Leland, North Carolina
Current Conditions -  °F | °C
As of 12:11 AM on Wednesday 26 Nov 2014 (Local Time) from KILM Reporting Station
Light Rain Light Rain  
Wind Chill: 63°   Ceiling: 400
Heat Index: 63°   Visibility: 10mi
Dew Point: 62°   Wind: 12mph
Humidity: 97%   Direction: 100°E
Pressure: 29.94"   Gusts: NA
Location:  34.26°N, 78.04°W
Report Text: KILM 260511Z 10010KT 10SM -RA OVC004 17/17 A2994 RMK AO2 P0000 T01720167
Loading
Personal Weather Stations






























Interactive Weather Map New forecast layout! Learn more

10-Day Weather Forecast

Advertisements
Track Severe Weather on mobile